Time;durP1;ratioP1;P1;durP2;ratioP2;P2;SDS_P1;SDS_P2;PMS_P1;PMS_P2;Temp;Humidity;BMP_temperature;BMP_pressure;BME280_temperature;BME280_humidity;BME280_pressure;Samples;Min_cycle;Max_cycle;Signal;HPM_P1;HPM_P2
2023/02/26 00:02:23;;;;;;;5.80;3.88;;;;;;;5.84;85.51;99189.09;5003816;28;20032;-67
2023/02/26 00:04:48;;;;;;;7.30;4.32;;;;;;;5.83;85.77;99195.38;5003015;28;20045;-66
2023/02/26 00:07:14;;;;;;;6.45;3.80;;;;;;;5.82;85.66;99191.91;5003711;28;20140;-66
2023/02/26 00:09:39;;;;;;;8.20;4.22;;;;;;;5.94;86.51;99211.28;5004945;28;20327;-73
2023/02/26 00:12:05;;;;;;;6.90;4.30;;;;;;;5.91;85.44;99201.75;5008628;28;20034;-73
2023/02/26 00:14:30;;;;;;;7.82;4.15;;;;;;;5.91;85.44;99199.09;5007164;28;20041;-74
2023/02/26 00:17:15;;;;;;;6.15;3.90;;;;;;;5.84;85.34;99186.44;5007875;28;20113;-67
2023/02/26 00:19:40;;;;;;;;;;;;;;;5.94;84.83;99192.66;5006771;28;20385;-67
2023/02/26 00:22:06;;;;;;;7.10;3.33;;;;;;;5.80;84.20;99193.81;5007334;28;19920;-67
2023/02/26 00:24:31;;;;;;;6.20;3.83;;;;;;;5.84;83.46;99192.59;5007098;28;20033;-67
2023/02/26 00:26:57;;;;;;;5.95;3.60;;;;;;;5.78;82.08;99178.97;5006232;28;20109;-67
2023/02/26 00:29:23;;;;;;;5.68;3.45;;;;;;;5.90;81.49;99215.19;5007110;28;20044;-67
2023/02/26 00:31:49;;;;;;;4.60;3.13;;;;;;;5.72;81.00;99190.97;5006052;28;20041;-67
2023/02/26 00:34:14;;;;;;;4.97;3.33;;;;;;;5.85;81.64;99204.09;5005937;28;20029;-66
2023/02/26 00:37:11;;;;;;;6.28;3.42;;;;;;;5.92;80.90;99197.25;5006545;28;20448;-65
2023/02/26 00:39:58;;;;;;;6.45;3.83;;;;;;;5.87;80.24;99197.66;5005355;28;20045;-67
2023/02/26 00:42:24;;;;;;;4.35;3.08;;;;;;;5.81;80.16;99190.19;5005444;28;20210;-66
2023/02/26 00:44:50;;;;;;;3.92;2.95;;;;;;;5.87;79.38;99202.97;5005979;28;20132;-66
2023/02/26 00:47:49;;;;;;;4.88;2.58;;;;;;;5.85;78.72;99196.97;5005324;28;20490;-67
2023/02/26 00:50:19;;;;;;;5.88;2.83;;;;;;;5.79;79.37;99201.91;4976058;28;20057;-73
2023/02/26 00:53:15;;;;;;;4.97;2.92;;;;;;;5.76;78.10;99179.09;5006076;28;20045;-74
2023/02/26 00:55:41;;;;;;;3.70;2.67;;;;;;;5.71;78.40;99193.75;5011368;28;20030;-73
2023/02/26 00:58:06;;;;;;;3.42;2.63;;;;;;;5.65;79.22;99187.16;5006636;28;20021;-73
2023/02/26 01:00:32;;;;;;;5.30;2.47;;;;;;;5.67;78.58;99179.88;5007638;28;20103;-73
2023/02/26 01:02:57;;;;;;;5.20;3.10;;;;;;;5.67;78.49;99195.84;5008226;28;20115;-73
2023/02/26 01:05:23;;;;;;;4.05;2.42;;;;;;;5.69;77.89;99185.91;5007632;28;20026;-72
2023/02/26 01:08:10;;;;;;;3.70;2.60;;;;;;;5.77;77.50;99188.75;5007936;28;20108;-72
2023/02/26 01:10:36;;;;;;;4.72;3.20;;;;;;;5.81;76.63;99184.88;5004688;28;20069;-73
2023/02/26 01:13:01;;;;;;;4.45;2.97;;;;;;;5.74;76.98;99180.22;5007774;28;20081;-73
2023/02/26 01:15:27;;;;;;;4.88;3.35;;;;;;;5.66;77.88;99185.31;5007908;28;20041;-72
2023/02/26 01:17:57;;;;;;;3.65;2.80;;;;;;;5.73;76.98;99182.00;5005539;28;20073;-73
2023/02/26 01:20:27;;;;;;;8.75;2.72;;;;;;;5.69;77.29;99174.44;5007199;28;20045;-72
2023/02/26 01:22:59;;;;;;;4.45;2.97;;;;;;;5.76;77.57;99188.88;5006080;28;20045;-72
2023/02/26 01:25:27;;;;;;;4.00;2.53;;;;;;;5.82;76.99;99197.22;5005089;28;20494;-73
2023/02/26 01:27:55;;;;;;;4.10;2.75;;;;;;;5.74;77.13;99207.63;5007586;28;20124;-73
2023/02/26 01:30:21;;;;;;;4.10;2.95;;;;;;;5.73;77.68;99210.41;5005824;28;20392;-72
2023/02/26 01:33:14;;;;;;;4.88;3.25;;;;;;;5.74;77.43;99225.44;5007714;28;20116;-66
2023/02/26 01:35:45;;;;;;;5.40;3.05;;;;;;;5.69;77.79;99225.81;5004626;28;20377;-66
2023/02/26 01:38:29;;;;;;;3.88;2.58;;;;;;;5.57;77.99;99213.56;5002974;28;20042;-66
2023/02/26 01:41:23;;;;;;;5.35;3.45;;;;;;;5.64;77.45;99224.53;5005016;28;20080;-67
2023/02/26 01:43:58;;;;;;;4.13;3.15;;;;;;;5.64;77.47;99225.34;5006897;28;20108;-67
2023/02/26 01:46:44;;;;;;;4.97;3.03;;;;;;;5.51;78.11;99202.59;5004543;28;20774;-67
2023/02/26 01:49:16;;;;;;;7.32;3.88;;;;;;;5.31;78.32;99191.00;5003206;28;20025;-68
2023/02/26 01:51:43;;;;;;;7.50;3.72;;;;;;;5.56;78.47;99233.16;5006279;28;20037;-67
2023/02/26 01:54:09;;;;;;;12.43;4.20;;;;;;;5.59;78.56;99226.72;5005922;28;20037;-67
2023/02/26 01:56:35;;;;;;;6.78;3.80;;;;;;;5.56;78.89;99229.63;5006367;28;20037;-67
2023/02/26 01:59:04;;;;;;;5.05;3.38;;;;;;;5.61;79.28;99238.09;5006655;28;20030;-74
2023/02/26 02:01:31;;;;;;;6.63;3.85;;;;;;;5.58;79.56;99225.88;5004891;28;20037;-73
2023/02/26 02:03:58;;;;;;;7.75;4.18;;;;;;;5.54;80.02;99228.91;5007526;28;20484;-73
2023/02/26 02:06:27;;;;;;;7.63;4.45;;;;;;;5.61;79.93;99238.09;5004862;28;20045;-73
2023/02/26 02:08:53;;;;;;;7.13;4.38;;;;;;;5.53;80.96;99236.06;5008263;28;20422;-73
2023/02/26 02:11:19;;;;;;;7.75;4.82;;;;;;;5.58;80.75;99247.13;5008290;28;20116;-73
2023/02/26 02:13:47;;;;;;;6.93;3.88;;;;;;;5.53;81.38;99238.72;5007783;28;20065;-73
2023/02/26 02:16:18;;;;;;;7.40;3.90;;;;;;;5.44;83.81;99250.13;5008093;28;20116;-67
2023/02/26 02:19:15;;;;;;;6.30;3.63;;;;;;;5.50;84.80;99233.66;5010419;28;20514;-67
2023/02/26 02:22:03;;;;;;;6.38;4.00;;;;;;;5.54;84.04;99243.06;5010984;28;20030;-67
2023/02/26 02:24:48;;;;;;;5.80;3.63;;;;;;;5.47;84.87;99243.69;5009879;28;20046;-67
2023/02/26 02:27:40;;;;;;;8.48;4.30;;;;;;;5.55;83.76;99250.06;5005603;28;20132;-66
2023/02/26 02:30:05;;;;;;;5.40;3.45;;;;;;;5.46;84.76;99248.19;4999621;28;20395;-66
2023/02/26 02:32:55;;;;;;;7.68;4.40;;;;;;;5.39;86.03;99240.84;5007284;28;20034;-66
2023/02/26 02:35:35;;;;;;;6.57;3.53;;;;;;;5.33;85.18;99220.09;5003787;28;20041;-67
2023/02/26 02:38:10;;;;;;;4.75;3.70;;;;;;;5.25;83.31;99202.13;5006020;28;20025;-66
2023/02/26 02:40:42;;;;;;;6.50;3.70;;;;;;;5.42;84.65;99235.28;5001969;28;20034;-66
2023/02/26 02:43:24;;;;;;;6.50;4.13;;;;;;;5.32;84.56;99227.22;5005654;28;20045;-66
2023/02/26 02:46:04;;;;;;;6.30;3.67;;;;;;;5.22;83.48;99222.81;5003521;28;20060;-67
2023/02/26 02:48:46;;;;;;;6.57;3.70;;;;;;;5.31;83.58;99251.28;5005011;28;20045;-67
2023/02/26 02:51:26;;;;;;;6.85;3.60;;;;;;;5.27;84.21;99264.00;5005723;28;20543;-68
2023/02/26 02:54:14;;;;;;;6.15;4.00;;;;;;;5.15;84.83;99264.13;5005186;28;20041;-66
2023/02/26 02:56:46;;;;;;;6.15;4.25;;;;;;;5.22;83.91;99286.59;5003154;28;20061;-67
2023/02/26 02:59:40;;;;;;;4.20;3.35;;;;;;;4.98;83.73;99272.66;5003513;28;20432;-66
2023/02/26 03:02:32;;;;;;;6.07;4.18;;;;;;;5.05;85.64;99287.97;5003454;28;20025;-67
2023/02/26 03:04:58;;;;;;;5.40;3.97;;;;;;;4.98;85.52;99284.13;5004543;28;20032;-67
2023/02/26 03:07:23;;;;;;;5.38;3.83;;;;;;;4.88;85.84;99271.72;5007482;28;20017;-66
2023/02/26 03:09:49;;;;;;;5.57;3.55;;;;;;;4.67;86.59;99245.09;5008863;28;20673;-67
2023/02/26 03:12:15;;;;;;;4.82;3.78;;;;;;;4.98;86.42;99308.06;5014410;28;20259;-67
2023/02/26 03:14:41;;;;;;;6.53;3.92;;;;;;;4.94;86.96;99311.06;5010589;28;20045;-67
2023/02/26 03:17:25;;;;;;;6.50;4.15;;;;;;;4.90;87.87;99297.19;5008110;28;20113;-67
2023/02/26 03:20:12;;;;;;;5.30;4.20;;;;;;;4.86;87.70;99298.41;5007281;28;20100;-67
2023/02/26 03:22:37;;;;;;;4.43;3.65;;;;;;;4.81;88.34;99302.41;5011148;28;20041;-67
2023/02/26 03:25:17;;;;;;;5.13;3.90;;;;;;;4.57;89.24;99265.38;5008936;28;20026;-67
2023/02/26 03:27:59;;;;;;;6.68;4.40;;;;;;;4.69;88.11;99275.88;5006905;28;20083;-66
2023/02/26 03:30:40;;;;;;;6.13;4.10;;;;;;;4.65;88.90;99302.81;5005479;28;20057;-67
2023/02/26 03:33:26;;;;;;;5.72;4.45;;;;;;;4.69;88.97;99318.38;5006521;28;20037;-67
2023/02/26 03:36:09;;;;;;;5.95;3.83;;;;;;;4.70;88.78;99330.66;5004520;28;20044;-67
2023/02/26 03:39:11;;;;;;;6.57;4.68;;;;;;;4.64;89.40;99339.13;5004943;28;20038;-66
2023/02/26 03:41:46;;;;;;;6.78;4.68;;;;;;;4.48;90.59;99313.88;5006768;28;20053;-67
2023/02/26 03:44:19;;;;;;;7.00;4.43;;;;;;;4.53;89.38;99298.47;5008161;28;20056;-67
2023/02/26 03:46:51;;;;;;;5.97;4.40;;;;;;;4.65;88.62;99332.84;5012855;28;20049;-67
2023/02/26 03:49:23;;;;;;;6.07;4.20;;;;;;;4.70;87.95;99332.47;5013764;28;20704;-66
2023/02/26 03:51:51;;;;;;;4.47;3.75;;;;;;;4.67;86.69;99327.41;5012791;28;20038;-67
2023/02/26 03:54:26;;;;;;;6.95;4.13;;;;;;;4.67;86.59;99338.03;5010802;28;20380;-67
2023/02/26 03:56:52;;;;;;;6.93;4.28;;;;;;;4.41;86.82;99291.47;5014936;28;20029;-67
2023/02/26 03:59:18;;;;;;;4.88;4.28;;;;;;;4.64;87.64;99351.53;5013026;28;20087;-67
2023/02/26 04:02:08;;;;;;;6.00;3.85;;;;;;;4.62;89.07;99350.84;5007961;28;20034;-67
2023/02/26 04:04:41;;;;;;;5.80;4.22;;;;;;;4.49;90.59;99352.75;5009577;28;20026;-67
2023/02/26 04:07:09;;;;;;;4.97;4.40;;;;;;;4.39;90.47;99342.00;5020376;28;20044;-66
2023/02/26 04:09:35;;;;;;;6.25;4.22;;;;;;;4.36;91.75;99344.06;5010149;28;20030;-67
2023/02/26 04:12:00;;;;;;;5.05;4.30;;;;;;;4.42;90.67;99340.94;5007601;28;20418;-74
2023/02/26 04:14:26;;;;;;;4.43;3.97;;;;;;;4.39;92.80;99349.16;5009742;28;20030;-75
2023/02/26 04:16:51;;;;;;;4.75;4.15;;;;;;;4.26;94.24;99330.66;5008617;28;20028;-74
2023/02/26 04:19:17;;;;;;;6.28;4.47;;;;;;;4.17;95.35;99333.19;5009597;28;20052;-76
2023/02/26 04:21:42;;;;;;;6.93;4.95;;;;;;;4.27;95.57;99355.41;5009186;28;20132;-76
2023/02/26 04:24:08;;;;;;;4.75;3.97;;;;;;;4.14;96.00;99352.00;5009630;28;20018;-76
2023/02/26 04:26:33;;;;;;;5.82;4.93;;;;;;;4.18;97.29;99356.97;5008232;28;20026;-77
2023/02/26 04:28:59;;;;;;;7.68;4.90;;;;;;;3.97;97.54;99336.53;5009932;28;20543;-76
2023/02/26 04:31:24;;;;;;;6.18;4.75;;;;;;;3.90;98.06;99349.41;5009272;28;20034;-75
2023/02/26 04:33:50;;;;;;;5.82;4.80;;;;;;;3.91;98.56;99353.78;5009139;28;20065;-76
2023/02/26 04:36:15;;;;;;;6.40;4.60;;;;;;;3.97;99.34;99371.84;5006875;28;20076;-75
2023/02/26 04:38:41;;;;;;;5.68;4.80;;;;;;;4.00;99.61;99368.97;5008775;28;20078;-77
2023/02/26 04:41:07;;;;;;;6.35;5.10;;;;;;;3.96;98.83;99369.31;5009150;28;20447;-77
2023/02/26 04:43:32;;;;;;;6.32;4.80;;;;;;;3.77;99.98;99351.31;5009579;28;20101;-77
2023/02/26 04:45:58;;;;;;;7.75;5.22;;;;;;;3.95;100.00;99372.94;5009968;28;20056;-77
2023/02/26 04:48:23;;;;;;;6.97;5.10;;;;;;;3.89;99.83;99365.44;5008844;28;20054;-77
2023/02/26 04:50:49;;;;;;;6.65;5.22;;;;;;;3.87;100.00;99378.00;5008944;28;20029;-77
2023/02/26 04:53:14;;;;;;;6.47;5.03;;;;;;;3.83;100.00;99376.50;5008818;28;20036;-78
2023/02/26 04:55:40;;;;;;;5.85;4.45;;;;;;;3.70;100.00;99371.28;5010061;28;20030;-77
2023/02/26 04:58:06;;;;;;;6.90;5.18;;;;;;;3.67;100.00;99382.13;5007822;28;20021;-78
2023/02/26 05:00:33;;;;;;;6.88;4.82;;;;;;;3.52;100.00;99367.34;5007573;28;20033;-70
2023/02/26 05:02:59;;;;;;;8.93;5.70;;;;;;;3.71;100.00;99393.34;5007448;28;20041;-70
2023/02/26 05:05:24;;;;;;;7.75;5.30;;;;;;;3.36;100.00;99327.06;5007008;28;20550;-70
2023/02/26 05:07:52;;;;;;;7.22;5.25;;;;;;;3.59;100.00;99383.66;5006838;28;20420;-69
2023/02/26 05:10:18;;;;;;;7.43;5.40;;;;;;;3.87;100.00;99410.63;5008970;28;20041;-77
2023/02/26 05:12:43;;;;;;;7.85;6.00;;;;;;;3.91;100.00;99396.22;5006657;28;20033;-77
2023/02/26 05:15:09;;;;;;;6.43;5.57;;;;;;;3.68;100.00;99398.88;5008531;28;20408;-78
2023/02/26 05:17:35;;;;;;;7.95;5.68;;;;;;;3.72;100.00;99416.25;5007921;28;20036;-76
2023/02/26 05:20:01;;;;;;;7.82;5.97;;;;;;;3.65;100.00;99404.41;5008855;28;20125;-77
2023/02/26 05:22:26;;;;;;;7.28;5.18;;;;;;;3.73;100.00;99415.28;5007236;28;20029;-77
2023/02/26 05:24:52;;;;;;;9.13;5.93;;;;;;;3.68;100.00;99415.63;5006737;28;20038;-77
2023/02/26 05:27:18;;;;;;;7.40;5.75;;;;;;;3.62;100.00;99409.94;5010222;28;20022;-77
2023/02/26 05:29:44;;;;;;;9.23;6.10;;;;;;;3.72;100.00;99384.44;5007927;28;20040;-77
2023/02/26 05:32:10;;;;;;;7.35;5.55;;;;;;;3.70;100.00;99403.09;5008514;28;20451;-78
2023/02/26 05:34:38;;;;;;;8.60;5.93;;;;;;;3.72;100.00;99406.50;5009444;28;20022;-77
2023/02/26 05:37:03;;;;;;;7.10;6.07;;;;;;;3.57;100.00;99399.66;5005952;28;20032;-77
2023/02/26 05:39:29;;;;;;;8.85;6.38;;;;;;;3.63;100.00;99423.09;5008985;28;20451;-77
2023/02/26 05:41:55;;;;;;;7.72;5.47;;;;;;;3.66;100.00;99432.59;5006673;28;20045;-77
2023/02/26 05:44:22;;;;;;;11.38;6.13;;;;;;;3.60;100.00;99425.09;5005245;28;20092;-77
2023/02/26 05:46:47;;;;;;;8.15;5.47;;;;;;;3.40;100.00;99421.28;5004814;28;20038;-77
2023/02/26 05:49:12;;;;;;;7.53;5.63;;;;;;;3.28;100.00;99437.19;5006919;28;20037;-78
2023/02/26 05:51:38;;;;;;;11.23;6.28;;;;;;;3.38;100.00;99433.78;5006907;28;20017;-77
2023/02/26 05:54:05;;;;;;;10.32;6.47;;;;;;;3.24;100.00;99426.00;5005493;28;20839;-76
2023/02/26 05:56:30;;;;;;;9.43;6.78;;;;;;;3.15;100.00;99431.94;5006517;28;20065;-77
2023/02/26 05:58:56;;;;;;;7.40;6.00;;;;;;;3.17;100.00;99440.63;5006090;28;20109;-76
2023/02/26 06:01:22;;;;;;;9.07;6.22;;;;;;;3.31;100.00;99439.63;5007982;28;20273;-76
2023/02/26 06:03:47;;;;;;;8.63;6.43;;;;;;;3.32;100.00;99451.94;5005766;28;20088;-77
2023/02/26 06:06:16;;;;;;;9.55;6.88;;;;;;;3.12;100.00;99426.00;5007102;28;20026;-77
2023/02/26 06:08:42;;;;;;;11.60;7.18;;;;;;;3.18;100.00;99460.88;5006221;28;20038;-77
2023/02/26 06:11:08;;;;;;;9.93;7.10;;;;;;;3.18;100.00;99478.56;5007200;28;20037;-77
2023/02/26 06:13:33;;;;;;;12.45;7.82;;;;;;;3.16;100.00;99446.88;5005255;28;20046;-77
2023/02/26 06:15:59;;;;;;;11.07;6.97;;;;;;;3.16;100.00;99444.22;5007096;28;20156;-70
2023/02/26 06:18:25;;;;;;;10.05;7.25;;;;;;;3.21;100.00;99433.31;5007805;28;20030;-70
2023/02/26 06:20:50;;;;;;;10.00;7.82;;;;;;;3.23;100.00;99431.41;5006296;28;20040;-69
2023/02/26 06:23:15;;;;;;;12.15;8.15;;;;;;;3.27;100.00;99446.09;5006254;28;20571;-69
2023/02/26 06:25:41;;;;;;;10.35;7.50;;;;;;;3.18;100.00;99438.81;5006340;28;20496;-70
2023/02/26 06:28:07;;;;;;;12.07;8.07;;;;;;;3.40;100.00;99452.22;5004970;28;20029;-69
2023/02/26 06:30:32;;;;;;;15.75;9.63;;;;;;;3.43;100.00;99449.34;5005093;28;20381;-69
2023/02/26 06:32:58;;;;;;;17.27;11.05;;;;;;;3.38;100.00;99439.06;5005258;28;20054;-69
2023/02/26 06:35:23;;;;;;;21.73;11.63;;;;;;;3.40;100.00;99465.47;5004633;28;20431;-70
2023/02/26 06:37:49;;;;;;;22.08;12.32;;;;;;;3.32;100.00;99459.88;5005069;28;20038;-69
2023/02/26 06:40:14;;;;;;;22.27;11.65;;;;;;;3.46;100.00;99449.13;5004775;28;20034;-70
2023/02/26 06:42:40;;;;;;;19.05;11.32;;;;;;;3.54;100.00;99446.75;5007983;28;20604;-70
2023/02/26 06:45:06;;;;;;;14.43;9.13;;;;;;;3.49;100.00;99457.72;5003546;28;20107;-69
2023/02/26 06:47:32;;;;;;;13.07;9.38;;;;;;;3.66;100.00;99469.72;5004372;28;20112;-69
2023/02/26 06:49:57;;;;;;;10.13;8.43;;;;;;;3.49;100.00;99431.22;5004587;28;20116;-69
2023/02/26 06:52:23;;;;;;;14.32;8.15;;;;;;;3.38;100.00;99435.56;5005764;28;20045;-68
2023/02/26 06:54:48;;;;;;;11.43;8.40;;;;;;;3.48;100.00;99449.88;5004109;28;20038;-69
2023/02/26 06:57:14;;;;;;;12.20;9.02;;;;;;;3.21;100.00;99404.16;5006086;28;20061;-68
2023/02/26 06:59:39;;;;;;;13.15;9.48;;;;;;;3.30;100.00;99408.81;5005362;28;20671;-69
2023/02/26 07:02:05;;;;;;;12.63;8.90;;;;;;;3.74;100.00;99475.31;5005905;28;20021;-68
2023/02/26 07:04:30;;;;;;;10.75;7.80;;;;;;;3.42;100.00;99403.44;5006071;28;20097;-69
2023/02/26 07:06:56;;;;;;;9.57;7.40;;;;;;;3.62;100.00;99441.75;5007596;28;20141;-69
2023/02/26 07:09:21;;;;;;;10.95;7.72;;;;;;;3.60;100.00;99454.25;5005736;28;20037;-69
2023/02/26 07:11:47;;;;;;;11.15;7.55;;;;;;;3.81;100.00;99466.78;5005399;28;20065;-69
2023/02/26 07:14:13;;;;;;;13.23;7.68;;;;;;;3.88;100.00;99461.88;5006463;28;20036;-69
2023/02/26 07:16:38;;;;;;;12.30;8.18;;;;;;;3.62;100.00;99428.50;5007142;28;20104;-69
2023/02/26 07:19:04;;;;;;;13.55;8.63;;;;;;;3.71;100.00;99451.69;5006467;28;20056;-69
2023/02/26 07:21:29;;;;;;;9.65;7.57;;;;;;;3.77;100.00;99452.06;5012414;28;20488;-69
2023/02/26 07:23:55;;;;;;;10.27;7.32;;;;;;;3.82;100.00;99447.28;5010820;28;20026;-70
2023/02/26 07:26:20;;;;;;;11.65;7.43;;;;;;;3.88;100.00;99445.97;5010700;28;20038;-69
2023/02/26 07:28:46;;;;;;;9.93;7.20;;;;;;;3.97;100.00;99458.56;5010707;28;20088;-69
2023/02/26 07:31:11;;;;;;;10.18;7.53;;;;;;;3.92;100.00;99428.84;5010400;28;20602;-70
2023/02/26 07:33:38;;;;;;;9.75;6.88;;;;;;;4.01;100.00;99446.75;5010287;28;20037;-69
2023/02/26 07:36:04;;;;;;;10.80;7.50;;;;;;;4.00;99.52;99418.53;5012285;28;20033;-69
2023/02/26 07:38:30;;;;;;;9.23;7.05;;;;;;;4.07;99.45;99448.94;5010814;28;20621;-69
2023/02/26 07:40:56;;;;;;;9.18;6.68;;;;;;;4.12;99.26;99446.78;5011642;28;20041;-69
2023/02/26 07:43:22;;;;;;;9.80;6.82;;;;;;;3.90;99.76;99422.84;5012428;28;20036;-70
2023/02/26 07:45:52;;;;;;;9.70;7.20;;;;;;;4.03;99.96;99431.56;5011279;28;20421;-69
2023/02/26 07:48:18;;;;;;;10.07;7.00;;;;;;;3.87;99.72;99410.63;5010061;28;20049;-69
2023/02/26 07:50:43;;;;;;;9.93;7.22;;;;;;;4.14;98.45;99444.84;5011083;28;20487;-70
2023/02/26 07:53:09;;;;;;;9.20;6.90;;;;;;;4.03;98.47;99431.56;5010707;28;20049;-69
2023/02/26 07:55:35;;;;;;;8.60;6.80;;;;;;;4.20;98.37;99462.97;5012416;28;20049;-70
2023/02/26 07:58:00;;;;;;;8.68;6.78;;;;;;;4.19;96.42;99424.97;5005301;28;20030;-69
2023/02/26 08:00:25;;;;;;;10.35;7.75;;;;;;;4.35;96.49;99448.53;5008322;28;20444;-69
2023/02/26 08:02:51;;;;;;;10.32;7.88;;;;;;;4.23;96.33;99447.66;5012370;28;20048;-69
2023/02/26 08:05:17;;;;;;;12.32;7.60;;;;;;;4.35;96.30;99462.66;5010739;28;20140;-69
2023/02/26 08:07:42;;;;;;;10.73;7.88;;;;;;;4.45;96.51;99484.06;5009187;28;20518;-69
2023/02/26 08:10:08;;;;;;;10.63;7.68;;;;;;;4.37;96.39;99484.63;5009778;28;20435;-69
2023/02/26 08:12:35;;;;;;;12.52;7.80;;;;;;;4.36;96.61;99469.66;5011464;28;20040;-69
2023/02/26 08:15:01;;;;;;;10.98;7.65;;;;;;;4.25;96.35;99450.19;5010811;28;20099;-69
2023/02/26 08:17:26;;;;;;;11.45;8.10;;;;;;;4.44;95.86;99482.34;5008726;28;20704;-69
2023/02/26 08:19:52;;;;;;;14.05;8.75;;;;;;;4.28;95.94;99447.31;5007187;28;20762;-67
2023/02/26 08:22:18;;;;;;;13.30;8.85;;;;;;;4.54;94.54;99480.66;5007040;28;20034;-67
2023/02/26 08:24:44;;;;;;;12.50;8.77;;;;;;;4.53;94.62;99481.63;5011172;28;20038;-68
2023/02/26 08:27:09;;;;;;;18.38;11.00;;;;;;;4.36;95.17;99456.38;5009989;28;20041;-68
2023/02/26 08:29:35;;;;;;;14.40;9.93;;;;;;;4.40;95.28;99472.91;5011057;28;20049;-69
2023/02/26 08:32:00;;;;;;;11.52;8.05;;;;;;;4.62;95.40;99494.22;5005431;28;20096;-68
2023/02/26 08:34:27;;;;;;;10.55;7.93;;;;;;;4.51;94.62;99473.78;5010899;28;20033;-68
2023/02/26 08:36:52;;;;;;;9.30;6.82;;;;;;;4.49;94.29;99466.91;5004846;28;20038;-68
2023/02/26 08:39:18;;;;;;;9.07;6.88;;;;;;;4.45;93.59;99460.16;5008262;28;20049;-68
2023/02/26 08:41:43;;;;;;;10.57;6.97;;;;;;;4.52;93.49;99472.00;5006789;28;20108;-68
2023/02/26 08:44:08;;;;;;;11.48;7.20;;;;;;;4.40;93.53;99444.59;5007077;28;20044;-68
2023/02/26 08:46:34;;;;;;;9.02;7.53;;;;;;;4.58;93.58;99471.53;5004152;28;20084;-68
2023/02/26 08:48:59;;;;;;;10.10;7.40;;;;;;;4.57;93.18;99475.13;5003803;28;20068;-68
2023/02/26 08:51:25;;;;;;;11.45;7.13;;;;;;;4.68;93.04;99483.13;5006401;28;20021;-68
2023/02/26 08:53:50;;;;;;;8.50;6.80;;;;;;;4.83;91.73;99505.00;5004789;28;20048;-67
2023/02/26 08:56:16;;;;;;;9.73;7.35;;;;;;;4.86;91.00;99513.56;5006558;28;20761;-67
2023/02/26 08:58:42;;;;;;;10.35;7.22;;;;;;;4.84;90.90;99515.50;5005912;28;20133;-68
2023/02/26 09:01:08;;;;;;;9.00;7.35;;;;;;;4.72;91.09;99496.06;5006275;28;20113;-68
2023/02/26 09:03:33;;;;;;;8.88;6.28;;;;;;;4.57;90.83;99468.03;5006039;28;20160;-68
2023/02/26 09:05:59;;;;;;;7.57;6.40;;;;;;;5.01;90.86;99527.47;5007256;28;20026;-74
2023/02/26 09:08:24;;;;;;;8.07;6.57;;;;;;;4.99;90.30;99530.25;5006565;28;20046;-73
2023/02/26 09:10:50;;;;;;;8.70;6.35;;;;;;;5.02;90.01;99519.38;5007228;28;20026;-73
2023/02/26 09:13:17;;;;;;;8.65;6.82;;;;;;;5.08;90.19;99518.91;5007321;28;20041;-75
2023/02/26 09:15:42;;;;;;;10.75;6.85;;;;;;;5.14;89.86;99531.72;5003955;28;20468;-73
2023/02/26 09:18:14;;;;;;;8.32;6.03;;;;;;;5.20;89.08;99528.59;5006452;28;20099;-73
2023/02/26 09:20:41;;;;;;;7.60;6.20;;;;;;;5.27;87.31;99540.44;5006628;28;20022;-72
2023/02/26 09:23:07;;;;;;;8.07;6.53;;;;;;;5.30;85.71;99548.16;5006122;28;20465;-71
2023/02/26 09:25:32;;;;;;;7.85;5.13;;;;;;;5.30;85.82;99550.81;5007396;28;20049;-74
2023/02/26 09:27:58;;;;;;;7.68;5.82;;;;;;;5.38;85.37;99548.38;5006805;28;20088;-74
2023/02/26 09:30:23;;;;;;;7.65;5.82;;;;;;;5.45;84.17;99554.91;5006350;28;20038;-73
2023/02/26 09:32:49;;;;;;;9.30;6.03;;;;;;;5.46;83.44;99553.97;5007530;28;20115;-74
2023/02/26 09:35:14;;;;;;;7.15;6.05;;;;;;;5.57;83.27;99567.25;5004806;28;20038;-74
2023/02/26 09:37:40;;;;;;;9.25;6.45;;;;;;;5.57;83.73;99561.94;5006209;28;20464;-73
2023/02/26 09:40:06;;;;;;;10.43;6.47;;;;;;;5.66;80.50;99566.53;5005086;28;20699;-73
2023/02/26 09:43:06;;;;;;;9.38;7.70;;;;;;;5.68;80.89;99569.88;5004507;28;20045;-73
2023/02/26 09:45:38;;;;;;;11.98;8.90;;;;;;;5.55;80.60;99552.38;5008013;28;20446;-73
2023/02/26 09:48:05;;;;;;;17.00;10.50;;;;;;;5.64;80.43;99560.47;5004030;28;20030;-74
2023/02/26 09:50:40;;;;;;;12.90;8.95;;;;;;;5.72;80.45;99574.00;5005136;28;20080;-73
2023/02/26 09:53:15;;;;;;;11.10;7.72;;;;;;;5.86;78.21;99583.56;5004629;28;20042;-74
2023/02/26 09:55:44;;;;;;;8.70;6.47;;;;;;;5.80;78.47;99581.38;5005679;28;20045;-73
2023/02/26 09:58:28;;;;;;;7.88;5.95;;;;;;;5.77;77.70;99574.47;5006111;28;20516;-74
2023/02/26 10:01:07;;;;;;;12.35;7.00;;;;;;;5.88;77.75;99589.63;5004258;28;20884;-67
2023/02/26 10:03:55;;;;;;;10.88;7.72;;;;;;;5.89;77.57;99591.31;5002804;28;20029;-67
2023/02/26 10:06:24;;;;;;;8.95;6.78;;;;;;;5.94;76.83;99597.94;5002132;28;20041;-66
2023/02/26 10:09:14;;;;;;;7.03;5.65;;;;;;;5.95;76.66;99598.81;5003833;28;20026;-67
2023/02/26 10:11:46;;;;;;;7.60;5.93;;;;;;;5.95;76.42;99606.78;5004659;28;20495;-68
2023/02/26 10:17:34;;;;;;;8.00;6.03;;;;;;;5.81;75.45;99573.28;5005206;28;20037;-66
2023/02/26 10:20:10;;;;;;;8.93;6.45;;;;;;;5.89;75.89;99602.81;5010239;28;20049;-67
2023/02/26 10:22:42;;;;;;;9.15;6.60;;;;;;;5.97;75.46;99620.81;5007258;28;20041;-68
2023/02/26 10:25:18;;;;;;;7.38;6.03;;;;;;;5.96;75.33;99613.78;5003599;28;20029;-67
2023/02/26 10:27:56;;;;;;;8.95;6.18;;;;;;;5.90;75.54;99617.78;5001901;28;20840;-67
2023/02/26 10:30:40;;;;;;;8.63;6.35;;;;;;;6.00;74.88;99615.25;5002404;28;20033;-67
2023/02/26 10:33:42;;;;;;;8.65;6.65;;;;;;;6.12;75.30;99643.53;5003300;28;20045;-66
2023/02/26 10:36:14;;;;;;;12.75;9.00;;;;;;;5.90;76.96;99604.50;4999730;28;20034;-68
2023/02/26 10:38:42;;;;;;;11.27;7.65;;;;;;;5.86;76.57;99616.34;4998976;28;20034;-67
2023/02/26 10:41:14;;;;;;;13.73;8.18;;;;;;;5.99;76.10;99634.84;5002445;28;20030;-68
2023/02/26 10:43:46;;;;;;;11.50;7.85;;;;;;;5.93;76.72;99620.22;5000179;28;20026;-67
2023/02/26 10:46:22;;;;;;;9.93;7.97;;;;;;;6.07;76.33;99645.72;5004030;28;20423;-67
2023/02/26 10:49:16;;;;;;;8.23;6.60;;;;;;;6.04;75.37;99654.81;5002643;28;20036;-68
2023/02/26 10:51:43;;;;;;;6.80;5.85;;;;;;;6.08;76.66;99650.06;4998818;28;20041;-68
2023/02/26 10:54:27;;;;;;;11.90;6.75;;;;;;;5.97;76.97;99636.78;5004184;28;20076;-68
2023/02/26 10:56:53;;;;;;;8.35;6.38;;;;;;;6.09;78.00;99649.94;5001849;28;20120;-68
2023/02/26 10:59:18;;;;;;;8.82;6.03;;;;;;;5.99;78.62;99646.34;5002757;28;20124;-67
2023/02/26 11:01:44;;;;;;;9.38;6.55;;;;;;;6.08;79.28;99661.59;5001403;28;20026;-68
2023/02/26 11:04:17;;;;;;;11.35;6.45;;;;;;;5.84;79.17;99625.44;5003701;28;20428;-68
2023/02/26 11:06:46;;;;;;;9.30;6.88;;;;;;;6.06;78.67;99658.19;5002533;28;20515;-67
2023/02/26 11:09:21;;;;;;;10.85;7.95;;;;;;;5.95;78.58;99644.03;5001389;28;20035;-67
2023/02/26 11:12:14;;;;;;;10.07;7.78;;;;;;;5.88;79.36;99633.06;5000620;28;20370;-68
2023/02/26 11:14:42;;;;;;;8.65;6.15;;;;;;;5.97;78.62;99648.25;5002403;28;20072;-68
2023/02/26 11:17:21;;;;;;;7.35;6.13;;;;;;;6.00;79.09;99656.00;5001553;28;20555;-67
2023/02/26 11:20:01;;;;;;;6.72;4.97;;;;;;;6.08;78.94;99674.03;5002908;28;20045;-68
2023/02/26 11:22:29;;;;;;;6.28;5.03;;;;;;;6.11;79.73;99676.44;5000262;28;20361;-68
2023/02/26 11:24:56;;;;;;;7.07;5.68;;;;;;;5.96;80.40;99657.22;5002352;28;20377;-65
2023/02/26 11:27:28;;;;;;;10.55;6.47;;;;;;;5.97;81.77;99661.56;5003181;28;20308;-67
2023/02/26 11:30:03;;;;;;;9.07;6.30;;;;;;;6.00;82.84;99666.66;4986138;28;20065;-68
2023/02/26 11:32:36;;;;;;;9.35;6.63;;;;;;;5.62;84.12;99602.31;4996449;28;20037;-68
2023/02/26 11:35:06;;;;;;;9.52;6.28;;;;;;;5.99;85.38;99664.09;4998648;28;20057;-67
2023/02/26 11:37:38;;;;;;;10.68;7.28;;;;;;;6.00;86.38;99669.31;4995780;28;20032;-68
2023/02/26 11:40:14;;;;;;;9.93;7.28;;;;;;;5.95;87.48;99665.31;5013050;28;20472;-69
2023/02/26 11:42:51;;;;;;;10.98;7.35;;;;;;;5.99;88.64;99683.59;4997580;28;20138;-67
2023/02/26 11:45:18;;;;;;;9.27;7.25;;;;;;;5.98;89.53;99681.06;4998712;28;20507;-67
2023/02/26 11:47:46;;;;;;;8.70;7.38;;;;;;;6.05;89.77;99690.25;4996302;28;20396;-69
2023/02/26 11:50:18;;;;;;;10.63;7.63;;;;;;;6.03;90.90;99694.84;4993105;28;20029;-75
2023/02/26 11:52:47;;;;;;;9.57;7.30;;;;;;;5.98;91.65;99695.22;4999330;28;20029;-76
2023/02/26 11:55:33;;;;;;;11.68;7.82;;;;;;;6.04;91.72;99708.03;5001988;28;20476;-77